Latest Weather Observations for Busselton Jetty

IDW60801

Issued at 11:04 am WST Saturday 27 August 2016 (issued every 30 minutes, with the page automatically refreshed every 10 minutes)

About weather observations | Map of weather stations | Latest weather observations for WA | Other Formats
Station Details ID: 009937 Name: BUSSELTON JETTY Lat: -33.63 Lon: 115.34 Height: 3.0 m
Data from the previous 72 hours. | See also: Recent months at Busselton Jetty
Date/Time
WST
Temp
°C
App
Temp
°C
Dew
Point
°C
Rel
Hum
%
Delta-T
°C
Wind Press
QNH
hPa
Press
MSL
hPa
Rain since
9am
mm
Dir  Spd
km/h
Gust
km/h
Spd
kts
Gust
kts
27/11:00am - - - - - W 39 48 21 26 - - -
27/10:30am - - - - - WSW 43 52 23 28 - - -
27/10:00am - - - - - WSW 37 48 20 26 - - -
27/09:30am - - - - - WSW 37 48 20 26 - - -
27/09:00am - - - - - WSW 28 33 15 18 - - -
27/08:30am - - - - - WSW 28 32 15 17 - - -
27/08:23am - - - - - W 30 37 16 20 - - -
27/08:00am - - - - - WNW 41 52 22 28 - - -
27/07:42am - - - - - WNW 30 54 16 29 - - -
27/07:30am - - - - - W 19 28 10 15 - - -
27/07:07am - - - - - W 37 48 20 26 - - -
27/07:00am - - - - - WNW 41 50 22 27 - - -
27/06:30am - - - - - WNW 41 48 22 26 - - -
27/06:00am - - - - - W 39 54 21 29 - - -
27/05:30am - - - - - WNW 41 48 22 26 - - -
27/05:16am - - - - - WNW 37 44 20 24 - - -
27/05:00am - - - - - W 33 41 18 22 - - -
27/04:30am - - - - - WNW 39 46 21 25 - - -
27/04:00am - - - - - W 32 35 17 19 - - -
27/03:30am - - - - - W 30 35 16 19 - - -
27/03:00am - - - - - W 33 37 18 20 - - -
27/02:30am - - - - - W 35 43 19 23 - - -
27/02:00am - - - - - NW 33 44 18 24 - - -
27/01:30am - - - - - WNW 35 44 19 24 - - -
27/01:00am - - - - - WNW 32 39 17 21 - - -
27/12:30am - - - - - WNW 41 54 22 29 - - -
27/12:00am - - - - - WNW 35 41 19 22 - - -
 
Date/Time
WST
Temp
°C
App
Temp
°C
Dew
Point
°C
Rel
Hum
%
Delta-T
°C
Wind Press
QNH
hPa
Press
MSL
hPa
Rain since
9am
mm
Dir  Spd
km/h
Gust
km/h
Spd
kts
Gust
kts
26/11:30pm - - - - - WNW 44 52 24 28 - - -
26/11:00pm - - - - - W 39 48 21 26 - - -
26/10:30pm - - - - - WNW 37 41 20 22 - - -
26/10:00pm - - - - - WNW 43 54 23 29 - - -
26/09:49pm - - - - - WNW 43 52 23 28 - - -
26/09:30pm - - - - - WNW 28 33 15 18 - - -
26/09:00pm - - - - - W 33 39 18 21 - - -
26/08:30pm - - - - - W 26 30 14 16 - - -
26/08:00pm - - - - - WNW 30 35 16 19 - - -
26/07:30pm - - - - - WNW 30 35 16 19 - - -
26/07:00pm - - - - - W 28 32 15 17 - - -
26/06:30pm - - - - - W 33 37 18 20 - - -
26/06:00pm - - - - - WSW 33 43 18 23 - - -
26/05:31pm - - - - - NNW 43 56 23 30 - - -
26/05:30pm - - - - - NNW 43 54 23 29 - - -
26/05:00pm - - - - - N 50 57 27 31 - - -
26/04:30pm - - - - - N 46 59 25 32 - - -
26/04:24pm - - - - - N 41 59 22 32 - - -
26/04:00pm - - - - - N 41 54 22 29 - - -
26/03:30pm - - - - - N 41 46 22 25 - - -
26/03:00pm - - - - - N 39 46 21 25 - - -
26/02:30pm - - - - - N 43 52 23 28 - - -
26/02:00pm - - - - - N 41 50 22 27 - - -
26/01:30pm - - - - - NNE 37 43 20 23 - - -
26/01:00pm - - - - - NNE 39 43 21 23 - - -
26/12:30pm - - - - - NNE 33 37 18 20 - - -
26/12:00pm - - - - - NNE 35 41 19 22 - - -
26/11:30am - - - - - NNE 41 48 22 26 - - -
26/11:00am - - - - - NNE 39 46 21 25 - - -
26/10:30am - - - - - NNE 37 43 20 23 - - -
26/10:00am - - - - - NNE 37 43 20 23 - - -
26/09:30am - - - - - NNE 39 43 21 23 - - -
26/09:00am - - - - - N 37 44 20 24 - - -
26/08:30am - - - - - N 39 44 21 24 - - -
26/08:00am - - - - - N 33 39 18 21 - - -
26/07:30am - - - - - N 32 37 17 20 - - -
26/07:00am - - - - - N 33 39 18 21 - - -
26/06:30am - - - - - N 33 37 18 20 - - -
26/06:00am - - - - - N 32 37 17 20 - - -
26/05:30am - - - - - N 32 37 17 20 - - -
26/05:00am - - - - - NNE 30 35 16 19 - - -
26/04:30am - - - - - NNE 30 33 16 18 - - -
26/04:00am - - - - - NNE 32 35 17 19 - - -
26/03:30am - - - - - NNE 33 39 18 21 - - -
26/03:00am - - - - - NNE 35 43 19 23 - - -
26/02:30am - - - - - NNE 33 41 18 22 - - -
26/02:00am - - - - - NE 30 32 16 17 - - -
26/01:30am - - - - - NE 33 39 18 21 - - -
26/01:00am - - - - - NE 33 37 18 20 - - -
26/12:30am - - - - - NE 33 39 18 21 - - -
26/12:00am - - - - - ENE 30 33 16 18 - - -
 
Date/Time
WST
Temp
°C
App
Temp
°C
Dew
Point
°C
Rel
Hum
%
Delta-T
°C
Wind Press
QNH
hPa
Press
MSL
hPa
Rain since
9am
mm
Dir  Spd
km/h
Gust
km/h
Spd
kts
Gust
kts
25/11:30pm - - - - - NE 30 33 16 18 - - -
25/11:00pm - - - - - ENE 28 33 15 18 - - -
25/10:30pm - - - - - ENE 30 33 16 18 - - -
25/10:00pm - - - - - ENE 28 33 15 18 - - -
25/09:30pm - - - - - ENE 28 33 15 18 - - -
25/09:00pm - - - - - ENE 28 32 15 17 - - -
25/08:30pm - - - - - ENE 24 28 13 15 - - -
25/08:00pm - - - - - ENE 20 26 11 14 - - -
25/07:30pm - - - - - ENE 13 15 7 8 - - -
25/07:00pm - - - - - ENE 9 11 5 6 - - -
25/06:30pm - - - - - NE 9 11 5 6 - - -
25/06:00pm - - - - - NNE 9 9 5 5 - - -
25/05:30pm - - - - - NNE 11 11 6 6 - - -
25/05:00pm - - - - - N 13 15 7 8 - - -
25/04:30pm - - - - - N 13 15 7 8 - - -
25/04:00pm - - - - - N 15 17 8 9 - - -
25/03:30pm - - - - - N 17 19 9 10 - - -
25/03:00pm - - - - - N 17 20 9 11 - - -
25/02:30pm - - - - - N 17 19 9 10 - - -
25/02:00pm - - - - - N 17 19 9 10 - - -
25/01:30pm - - - - - N 17 19 9 10 - - -
25/01:00pm - - - - - N 17 19 9 10 - - -
25/12:30pm - - - - - NNE 19 20 10 11 - - -
25/12:00pm - - - - - NNE 19 22 10 12 - - -
25/11:30am - - - - - NNE 19 22 10 12 - - -
25/11:00am - - - - - NNE 20 24 11 13 - - -
25/10:30am - - - - - NNE 22 28 12 15 - - -
25/10:00am - - - - - NE 19 24 10 13 - - -
25/09:30am - - - - - ENE 19 24 10 13 - - -
25/09:00am - - - - - ENE 17 20 9 11 - - -
25/08:30am - - - - - E 15 19 8 10 - - -
25/08:00am - - - - - E 15 17 8 9 - - -
25/07:30am - - - - - E 17 19 9 10 - - -
25/07:00am - - - - - E 17 19 9 10 - - -
25/06:30am - - - - - E 17 19 9 10 - - -
25/06:00am - - - - - E 15 19 8 10 - - -
25/05:30am - - - - - E 17 19 9 10 - - -
25/05:00am - - - - - E 20 26 11 14 - - -
25/04:30am - - - - - E 26 30 14 16 - - -
25/04:00am - - - - - E 28 33 15 18 - - -
25/03:30am - - - - - E 28 32 15 17 - - -
25/03:00am - - - - - ENE 26 30 14 16 - - -
25/02:30am - - - - - ENE 24 30 13 16 - - -
25/02:00am - - - - - E 22 28 12 15 - - -
25/01:30am - - - - - E 22 28 12 15 - - -
25/01:00am - - - - - E 24 28 13 15 - - -
25/12:30am - - - - - E 24 26 13 14 - - -
25/12:00am - - - - - E 22 28 12 15 - - -
 
Date/Time
WST
Temp
°C
App
Temp
°C
Dew
Point
°C
Rel
Hum
%
Delta-T
°C
Wind Press
QNH
hPa
Press
MSL
hPa
Rain since
9am
mm
Dir  Spd
km/h
Gust
km/h
Spd
kts
Gust
kts
24/11:30pm - - - - - E 20 24 11 13 - - -
24/11:00pm - - - - - E 22 30 12 16 - - -
24/10:30pm - - - - - E 20 24 11 13 - - -
24/10:00pm - - - - - E 19 22 10 12 - - -
24/09:30pm - - - - - E 20 24 11 13 - - -
24/09:00pm - - - - - E 19 24 10 13 - - -
24/08:30pm - - - - - E 19 24 10 13 - - -
24/08:00pm - - - - - E 19 20 10 11 - - -
24/07:30pm - - - - - E 17 20 9 11 - - -
24/07:00pm - - - - - E 17 19 9 10 - - -
24/06:30pm - - - - - E 9 15 5 8 - - -
24/06:00pm - - - - - WSW 7 9 4 5 - - -
24/05:30pm - - - - - WSW 9 11 5 6 - - -
24/05:00pm - - - - - W 11 11 6 6 - - -
24/04:30pm - - - - - W 13 13 7 7 - - -
24/04:00pm - - - - - WNW 13 15 7 8 - - -
24/03:30pm - - - - - WNW 13 17 7 9 - - -
24/03:00pm - - - - - WNW 13 15 7 8 - - -
24/02:30pm - - - - - WNW 13 15 7 8 - - -
24/02:00pm - - - - - WNW 11 13 6 7 - - -
24/01:30pm - - - - - NW 11 13 6 7 - - -
24/01:00pm - - - - - NW 11 13 6 7 - - -
24/12:30pm - - - - - NW 11 15 6 8 - - -
24/12:00pm - - - - - NNW 11 13 6 7 - - -
24/11:30am - - - - - N 11 15 6 8 - - -

Other Formats:

Comma delimited format used in spreadsheet applications
http://www.bom.gov.au/fwo/IDW60801/IDW60801.95602.axf

JavaScript Object Notation format (JSON) in row-major order
http://www.bom.gov.au/fwo/IDW60801/IDW60801.95602.json